Amboy, Illinois
Current Conditions -  °F | °C
As of 5:15 AM on Friday 28 Nov 2014 (Local Time) from KRPJ Reporting Station
Overcast Overcast  
Wind Chill:   Ceiling: 8000
Heat Index: 17°   Visibility: 10mi
Dew Point: 11°   Wind: 12mph
Humidity: 79%   Direction: 140°SE
Pressure: 30.28"   Gusts: NA
Location:  41.71°N, 89.33°W
Report Text: KRPJ 281115Z AUTO 14010KT 10SM OVC080 M08/M12 A3028 RMK AO2 T10851116
Loading
Personal Weather Stations






























Interactive Weather Map New forecast layout! Learn more

10-Day Weather Forecast

Advertisements
Track Severe Weather on mobile